Terminal Aerodrome Forecast
Issued by NWS

Home | Current Version | Previous Version | Graphics & Text | Print | Product List | Glossary On
Versions: 1 2 3 4 5 6 7 8 9 10 11 12 13 14 15 16 17 18 19
000
FTUS43 KMPX 211900 AAA
TAFRWF
TAF AMD
KRWF 211932Z 2120/2218 16015G25KT P6SM FEW020 SCT025 BKN035
      TEMPO 2120/2124 BKN020
     FM220300 17012KT P6SM FEW020 BKN150
     FM221000 30010KT 5SM BR FEW010 SCT120
     FM221400 33013G19KT P6SM SCT250=

USA.gov is the U.S. government's official web portal to all federal, state and local government web resources and services.